IBE04DB LEXJ-LEMD
Flight info
| Callsign | IBE04DB |
|---|---|
| Flight time | N/A |
| Altitude | 29000 |
| Route | TITAN N864 NONTU |
| Aircraft | A319/M-SDE3FGHIRWY/LB1 |
Departure
| Time | 2026-04-26 15:15 |
|---|---|
| Airport | Seve Ballesteros-Santander Airport (LEXJ) |
Arrival
| Time | N/A |
|---|---|
| Airport | Adolfo Suárez Madrid–Barajas Airport (LEMD) |
| Time | Latitude | Longitude | Altitude | Speed | Heading |
|---|---|---|---|---|---|
| 2026-04-26 15:05 | 43.42379 | -3.82303 | 20 ft | 0 kts | 234° |
| 2026-04-26 15:10 | 43.42379 | -3.82304 | 19 ft | 0 kts | 240° |
| 2026-04-26 15:11 | 43.42386 | -3.82308 | 21 ft | 1 kts | 346° |
| 2026-04-26 15:11 | 43.42394 | -3.82301 | 21 ft | 5 kts | 27° |
| 2026-04-26 15:11 | 43.42408 | -3.82219 | 19 ft | 13 kts | 103° |
| 2026-04-26 15:11 | 43.42408 | -3.82103 | 20 ft | 13 kts | 35° |
| 2026-04-26 15:12 | 43.42501 | -3.82062 | 19 ft | 15 kts | 21° |
| 2026-04-26 15:12 | 43.42519 | -3.81946 | 19 ft | 15 kts | 104° |
| 2026-04-26 15:12 | 43.42482 | -3.81798 | 19 ft | 19 kts | 109° |
| 2026-04-26 15:12 | 43.42437 | -3.81625 | 19 ft | 19 kts | 110° |
| 2026-04-26 15:13 | 43.42390 | -3.81453 | 19 ft | 19 kts | 111° |
| 2026-04-26 15:13 | 43.42433 | -3.81320 | 23 ft | 18 kts | 20° |
| 2026-04-26 15:13 | 43.42494 | -3.81216 | 22 ft | 16 kts | 107° |
| 2026-04-26 15:13 | 43.42446 | -3.81032 | 20 ft | 23 kts | 109° |
| 2026-04-26 15:14 | 43.42392 | -3.80826 | 20 ft | 23 kts | 110° |
| 2026-04-26 15:14 | 43.42321 | -3.80652 | 19 ft | 17 kts | 70° |
| 2026-04-26 15:14 | 43.42364 | -3.80714 | 19 ft | 13 kts | 290° |
| 2026-04-26 15:14 | 43.42471 | -3.81123 | 24 ft | 83 kts | 290° |
| 2026-04-26 15:15 | 43.42745 | -3.82146 | 18 ft | 143 kts | 290° |
| 2026-04-26 15:15 | 43.43141 | -3.83592 | 253 ft | 167 kts | 292° |
| 2026-04-26 15:15 | 43.43544 | -3.85059 | 1028 ft | 162 kts | 293° |
| 2026-04-26 15:15 | 43.43937 | -3.86485 | 1819 ft | 162 kts | 292° |
| 2026-04-26 15:16 | 43.44359 | -3.88014 | 2309 ft | 181 kts | 291° |
| 2026-04-26 15:16 | 43.44831 | -3.89731 | 2673 ft | 202 kts | 291° |
| 2026-04-26 15:16 | 43.45349 | -3.91614 | 3138 ft | 216 kts | 291° |
| 2026-04-26 15:16 | 43.45904 | -3.93645 | 3542 ft | 242 kts | 291° |
| 2026-04-26 15:17 | 43.46524 | -3.95924 | 4105 ft | 264 kts | 291° |
| 2026-04-26 15:17 | 43.46964 | -3.97539 | 4711 ft | 269 kts | 291° |
| 2026-04-26 15:17 | 43.47842 | -4.00768 | 5965 ft | 274 kts | 291° |
| 2026-04-26 15:17 | 43.48502 | -4.03247 | 6889 ft | 277 kts | 288° |
| 2026-04-26 15:18 | 43.48691 | -4.05883 | 7740 ft | 281 kts | 262° |
| 2026-04-26 15:18 | 43.47992 | -4.08382 | 8636 ft | 284 kts | 235° |
| 2026-04-26 15:18 | 43.46527 | -4.10192 | 9563 ft | 288 kts | 208° |
| 2026-04-26 15:18 | 43.44590 | -4.10902 | 10448 ft | 294 kts | 182° |
| 2026-04-26 15:19 | 43.42474 | -4.10664 | 10873 ft | 318 kts | 171° |
| 2026-04-26 15:19 | 43.40258 | -4.09880 | 11135 ft | 342 kts | 162° |
| 2026-04-26 15:19 | 43.38041 | -4.08525 | 11682 ft | 353 kts | 152° |
| 2026-04-26 15:19 | 43.35966 | -4.06686 | 12411 ft | 358 kts | 143° |
| 2026-04-26 15:20 | 43.34094 | -4.04408 | 13182 ft | 362 kts | 135° |
| 2026-04-26 15:20 | 43.32501 | -4.01713 | 13923 ft | 367 kts | 125° |
| 2026-04-26 15:20 | 43.30972 | -3.98891 | 14570 ft | 369 kts | 134° |
| 2026-04-26 15:20 | 43.29037 | -3.96574 | 15194 ft | 371 kts | 147° |
| 2026-04-26 15:21 | 43.26739 | -3.94948 | 15831 ft | 373 kts | 161° |
| 2026-04-26 15:21 | 43.24242 | -3.94002 | 16516 ft | 373 kts | 171° |
| 2026-04-26 15:21 | 43.21646 | -3.93699 | 17145 ft | 375 kts | 182° |
| 2026-04-26 15:21 | 43.19033 | -3.93996 | 17757 ft | 379 kts | 187° |
| 2026-04-26 15:22 | 43.16400 | -3.94400 | 18349 ft | 383 kts | 187° |
| 2026-04-26 15:22 | 43.13735 | -3.94807 | 18879 ft | 387 kts | 187° |
| 2026-04-26 15:22 | 43.11045 | -3.95217 | 19433 ft | 390 kts | 187° |
| 2026-04-26 15:22 | 43.08338 | -3.95628 | 19968 ft | 393 kts | 187° |
| 2026-04-26 15:23 | 43.05608 | -3.96037 | 20537 ft | 396 kts | 186° |
| 2026-04-26 15:23 | 43.02856 | -3.96445 | 21080 ft | 399 kts | 186° |
| 2026-04-26 15:23 | 43.00091 | -3.96858 | 21623 ft | 401 kts | 187° |
| 2026-04-26 15:23 | 42.97311 | -3.97276 | 22164 ft | 403 kts | 187° |
| 2026-04-26 15:24 | 42.94509 | -3.97697 | 22641 ft | 407 kts | 187° |
| 2026-04-26 15:24 | 42.91682 | -3.98117 | 23113 ft | 410 kts | 186° |
| 2026-04-26 15:24 | 42.88874 | -3.98528 | 23622 ft | 412 kts | 187° |
| 2026-04-26 15:24 | 42.86012 | -3.98944 | 24049 ft | 415 kts | 186° |
| 2026-04-26 15:25 | 42.83134 | -3.99358 | 24431 ft | 417 kts | 186° |
| 2026-04-26 15:25 | 42.81175 | -3.99639 | 24673 ft | 420 kts | 187° |
| 2026-04-26 15:25 | 42.77317 | -4.00192 | 25187 ft | 422 kts | 187° |
| 2026-04-26 15:25 | 42.74387 | -4.00617 | 25577 ft | 425 kts | 186° |
| 2026-04-26 15:26 | 42.71441 | -4.01047 | 25935 ft | 428 kts | 186° |
| 2026-04-26 15:26 | 42.68469 | -4.01482 | 26299 ft | 430 kts | 186° |
| 2026-04-26 15:26 | 42.65480 | -4.01917 | 26681 ft | 433 kts | 187° |
| 2026-04-26 15:26 | 42.62480 | -4.02352 | 27037 ft | 435 kts | 187° |
| 2026-04-26 15:27 | 42.59458 | -4.02789 | 27388 ft | 438 kts | 186° |
| 2026-04-26 15:27 | 42.56417 | -4.03228 | 27749 ft | 441 kts | 186° |
| 2026-04-26 15:27 | 42.53362 | -4.03670 | 28095 ft | 443 kts | 186° |
| 2026-04-26 15:27 | 42.50289 | -4.04114 | 28410 ft | 446 kts | 186° |
| 2026-04-26 15:28 | 42.47192 | -4.04560 | 28719 ft | 449 kts | 186° |
| 2026-04-26 15:28 | 42.44081 | -4.05007 | 29026 ft | 451 kts | 186° |
| 2026-04-26 15:28 | 42.37877 | -4.05895 | 29120 ft | 445 kts | 186° |
| 2026-04-26 15:29 | 42.31733 | -4.06777 | 29123 ft | 444 kts | 186° |
| 2026-04-26 15:30 | 42.19461 | -4.08538 | 29125 ft | 445 kts | 186° |
| 2026-04-26 15:30 | 42.13299 | -4.09424 | 29123 ft | 445 kts | 186° |
| 2026-04-26 15:31 | 42.04098 | -4.10728 | 29109 ft | 445 kts | 186° |
| 2026-04-26 15:32 | 41.95889 | -4.11776 | 29107 ft | 445 kts | 185° |
| 2026-04-26 15:32 | 41.88661 | -4.12540 | 29107 ft | 445 kts | 185° |
| 2026-04-26 15:33 | 41.82501 | -4.13211 | 29105 ft | 445 kts | 185° |
| 2026-04-26 15:33 | 41.76309 | -4.13925 | 29108 ft | 445 kts | 185° |
| 2026-04-26 15:34 | 41.70136 | -4.14635 | 29108 ft | 445 kts | 185° |
| 2026-04-26 15:34 | 41.64002 | -4.15332 | 29116 ft | 444 kts | 185° |
| 2026-04-26 15:35 | 41.57848 | -4.16018 | 29115 ft | 444 kts | 185° |
| 2026-04-26 15:35 | 41.51702 | -4.16712 | 29113 ft | 443 kts | 185° |
| 2026-04-26 15:36 | 41.45884 | -4.17367 | 29117 ft | 443 kts | 185° |
| 2026-04-26 15:36 | 41.39753 | -4.18056 | 29121 ft | 442 kts | 185° |
| 2026-04-26 15:37 | 41.33631 | -4.18751 | 29125 ft | 441 kts | 186° |
| 2026-04-26 15:37 | 41.27517 | -4.19438 | 29122 ft | 441 kts | 185° |
| 2026-04-26 15:38 | 41.21269 | -4.19990 | 29131 ft | 459 kts | 184° |
| 2026-04-26 15:38 | 41.14800 | -4.20327 | 29101 ft | 463 kts | 182° |
| 2026-04-26 15:39 | 41.11637 | -4.20473 | 28825 ft | 449 kts | 183° |
| 2026-04-26 15:39 | 41.08544 | -4.20625 | 28560 ft | 444 kts | 183° |
| 2026-04-26 15:39 | 41.05469 | -4.20794 | 28289 ft | 442 kts | 183° |
| 2026-04-26 15:39 | 41.05306 | -4.20803 | 28274 ft | 442 kts | 183° |